sensor_id;sensor_type;location;lat;lon;timestamp;temperature;humidity
8945;DHT22;4507;40.232;29.132;2023-05-10T00:00:15;14.80;89.50
8945;DHT22;4507;40.232;29.132;2023-05-10T00:02:45;14.80;89.50
8945;DHT22;4507;40.232;29.132;2023-05-10T00:05:14;14.80;89.60
8945;DHT22;4507;40.232;29.132;2023-05-10T00:07:43;14.80;89.60
8945;DHT22;4507;40.232;29.132;2023-05-10T00:10:13;14.80;89.20
8945;DHT22;4507;40.232;29.132;2023-05-10T00:12:43;14.80;88.50
8945;DHT22;4507;40.232;29.132;2023-05-10T00:15:13;14.70;88.40
8945;DHT22;4507;40.232;29.132;2023-05-10T00:17:42;14.70;88.40
8945;DHT22;4507;40.232;29.132;2023-05-10T00:20:11;14.70;88.50
8945;DHT22;4507;40.232;29.132;2023-05-10T00:22:41;14.70;88.50
8945;DHT22;4507;40.232;29.132;2023-05-10T00:25:10;14.70;88.70
8945;DHT22;4507;40.232;29.132;2023-05-10T00:27:39;14.70;88.80
8945;DHT22;4507;40.232;29.132;2023-05-10T00:30:10;14.60;88.90
8945;DHT22;4507;40.232;29.132;2023-05-10T00:32:39;13.80;88.10
8945;DHT22;4507;40.232;29.132;2023-05-10T00:35:08;14.60;89.10
8945;DHT22;4507;40.232;29.132;2023-05-10T00:37:37;14.50;89.40
8945;DHT22;4507;40.232;29.132;2023-05-10T00:40:07;14.50;89.70
8945;DHT22;4507;40.232;29.132;2023-05-10T00:42:36;14.50;89.90
8945;DHT22;4507;40.232;29.132;2023-05-10T00:45:09;14.50;90.00
8945;DHT22;4507;40.232;29.132;2023-05-10T00:47:39;14.50;90.00
8945;DHT22;4507;40.232;29.132;2023-05-10T00:50:09;14.60;90.00
8945;DHT22;4507;40.232;29.132;2023-05-10T00:52:38;14.60;90.10
8945;DHT22;4507;40.232;29.132;2023-05-10T00:55:08;14.60;90.00
8945;DHT22;4507;40.232;29.132;2023-05-10T00:57:38;14.50;90.00
8945;DHT22;4507;40.232;29.132;2023-05-10T01:00:10;14.50;90.00
8945;DHT22;4507;40.232;29.132;2023-05-10T01:02:40;14.50;89.90
8945;DHT22;4507;40.232;29.132;2023-05-10T01:05:10;14.50;89.90
8945;DHT22;4507;40.232;29.132;2023-05-10T01:07:39;14.50;90.00
8945;DHT22;4507;40.232;29.132;2023-05-10T01:10:10;14.50;90.10
8945;DHT22;4507;40.232;29.132;2023-05-10T01:12:40;14.40;90.00
8945;DHT22;4507;40.232;29.132;2023-05-10T01:15:13;14.40;90.10
8945;DHT22;4507;40.232;29.132;2023-05-10T01:17:46;14.40;90.20
8945;DHT22;4507;40.232;29.132;2023-05-10T01:20:40;14.40;90.30
8945;DHT22;4507;40.232;29.132;2023-05-10T01:23:31;14.40;90.30
8945;DHT22;4507;40.232;29.132;2023-05-10T01:26:30;13.60;90.00
8945;DHT22;4507;40.232;29.132;2023-05-10T01:29:18;14.30;90.30
8945;DHT22;4507;40.232;29.132;2023-05-10T01:32:14;14.30;90.40
8945;DHT22;4507;40.232;29.132;2023-05-10T01:34:51;14.30;90.40
8945;DHT22;4507;40.232;29.132;2023-05-10T01:37:27;14.30;90.50
8945;DHT22;4507;40.232;29.132;2023-05-10T01:40:01;14.30;90.50
8945;DHT22;4507;40.232;29.132;2023-05-10T01:42:38;14.30;90.50
8945;DHT22;4507;40.232;29.132;2023-05-10T01:45:14;14.30;90.60
8945;DHT22;4507;40.232;29.132;2023-05-10T01:47:49;14.30;90.60
8945;DHT22;4507;40.232;29.132;2023-05-10T01:50:24;14.30;90.60
8945;DHT22;4507;40.232;29.132;2023-05-10T01:52:58;14.30;90.70
8945;DHT22;4507;40.232;29.132;2023-05-10T01:55:30;14.20;90.60
8945;DHT22;4507;40.232;29.132;2023-05-10T01:58:03;14.20;90.60
8945;DHT22;4507;40.232;29.132;2023-05-10T02:00:33;14.20;90.60
8945;DHT22;4507;40.232;29.132;2023-05-10T02:03:07;14.20;90.70
8945;DHT22;4507;40.232;29.132;2023-05-10T02:05:37;14.20;90.70
8945;DHT22;4507;40.232;29.132;2023-05-10T02:08:08;14.20;90.80
8945;DHT22;4507;40.232;29.132;2023-05-10T02:10:38;14.20;90.90
8945;DHT22;4507;40.232;29.132;2023-05-10T02:13:08;14.20;91.00
8945;DHT22;4507;40.232;29.132;2023-05-10T02:15:40;14.20;91.00
8945;DHT22;4507;40.232;29.132;2023-05-10T02:18:13;14.20;91.10
8945;DHT22;4507;40.232;29.132;2023-05-10T02:20:45;14.20;91.20
8945;DHT22;4507;40.232;29.132;2023-05-10T02:23:16;14.10;91.20
8945;DHT22;4507;40.232;29.132;2023-05-10T02:25:48;14.10;91.30
8945;DHT22;4507;40.232;29.132;2023-05-10T02:28:21;14.10;91.40
8945;DHT22;4507;40.232;29.132;2023-05-10T02:30:51;14.10;91.50
8945;DHT22;4507;40.232;29.132;2023-05-10T02:33:22;14.10;91.50
8945;DHT22;4507;40.232;29.132;2023-05-10T02:35:52;14.10;91.60
8945;DHT22;4507;40.232;29.132;2023-05-10T02:38:23;14.00;91.70
8945;DHT22;4507;40.232;29.132;2023-05-10T02:40:53;14.00;91.70
8945;DHT22;4507;40.232;29.132;2023-05-10T02:43:23;14.00;91.80
8945;DHT22;4507;40.232;29.132;2023-05-10T02:45:53;14.00;91.80
8945;DHT22;4507;40.232;29.132;2023-05-10T02:48:23;14.00;91.90
8945;DHT22;4507;40.232;29.132;2023-05-10T02:50:56;14.00;92.00
8945;DHT22;4507;40.232;29.132;2023-05-10T02:53:33;14.00;92.10
8945;DHT22;4507;40.232;29.132;2023-05-10T02:56:05;14.00;92.20
8945;DHT22;4507;40.232;29.132;2023-05-10T02:58:38;13.90;92.20
8945;DHT22;4507;40.232;29.132;2023-05-10T03:01:07;13.90;92.20
8945;DHT22;4507;40.232;29.132;2023-05-10T03:03:40;13.90;92.30
8945;DHT22;4507;40.232;29.132;2023-05-10T03:06:10;13.90;92.50
8945;DHT22;4507;40.232;29.132;2023-05-10T03:08:39;13.90;92.50
8945;DHT22;4507;40.232;29.132;2023-05-10T03:11:28;13.90;92.60
8945;DHT22;4507;40.232;29.132;2023-05-10T03:14:12;13.90;92.70
8945;DHT22;4507;40.232;29.132;2023-05-10T03:16:47;13.90;92.60
8945;DHT22;4507;40.232;29.132;2023-05-10T03:19:32;13.90;92.70
8945;DHT22;4507;40.232;29.132;2023-05-10T03:22:10;13.90;92.70
8945;DHT22;4507;40.232;29.132;2023-05-10T03:24:42;13.90;92.60
8945;DHT22;4507;40.232;29.132;2023-05-10T03:27:12;13.90;92.70
8945;DHT22;4507;40.232;29.132;2023-05-10T03:29:42;13.90;92.80
8945;DHT22;4507;40.232;29.132;2023-05-10T03:32:14;13.90;92.80
8945;DHT22;4507;40.232;29.132;2023-05-10T03:34:45;13.90;92.80
8945;DHT22;4507;40.232;29.132;2023-05-10T03:37:15;13.90;92.90
8945;DHT22;4507;40.232;29.132;2023-05-10T03:39:45;13.90;92.80
8945;DHT22;4507;40.232;29.132;2023-05-10T03:42:14;13.90;92.70
8945;DHT22;4507;40.232;29.132;2023-05-10T03:44:45;13.90;92.70
8945;DHT22;4507;40.232;29.132;2023-05-10T03:47:20;13.90;92.80
8945;DHT22;4507;40.232;29.132;2023-05-10T03:49:50;14.00;92.80
8945;DHT22;4507;40.232;29.132;2023-05-10T03:52:19;14.00;92.90
8945;DHT22;4507;40.232;29.132;2023-05-10T03:54:48;14.00;92.90
8945;DHT22;4507;40.232;29.132;2023-05-10T03:57:18;14.00;92.90
8945;DHT22;4507;40.232;29.132;2023-05-10T03:59:46;14.00;92.80
8945;DHT22;4507;40.232;29.132;2023-05-10T04:02:16;14.00;92.80
8945;DHT22;4507;40.232;29.132;2023-05-10T04:04:45;14.00;92.90
8945;DHT22;4507;40.232;29.132;2023-05-10T04:07:16;14.10;93.00
8945;DHT22;4507;40.232;29.132;2023-05-10T04:09:47;14.10;92.90
8945;DHT22;4507;40.232;29.132;2023-05-10T04:12:16;14.10;92.80
8945;DHT22;4507;40.232;29.132;2023-05-10T04:14:45;14.10;92.70
8945;DHT22;4507;40.232;29.132;2023-05-10T04:17:14;14.10;92.70
8945;DHT22;4507;40.232;29.132;2023-05-10T04:19:43;14.10;92.70
8945;DHT22;4507;40.232;29.132;2023-05-10T04:22:12;14.20;93.10
8945;DHT22;4507;40.232;29.132;2023-05-10T04:24:42;14.20;92.80
8945;DHT22;4507;40.232;29.132;2023-05-10T04:27:11;14.20;92.90
8945;DHT22;4507;40.232;29.132;2023-05-10T04:29:40;14.20;92.90
8945;DHT22;4507;40.232;29.132;2023-05-10T04:32:09;14.20;92.80
8945;DHT22;4507;40.232;29.132;2023-05-10T04:34:38;14.20;92.80
8945;DHT22;4507;40.232;29.132;2023-05-10T04:37:07;14.20;92.80
8945;DHT22;4507;40.232;29.132;2023-05-10T04:39:36;14.20;92.80
8945;DHT22;4507;40.232;29.132;2023-05-10T04:42:28;14.20;92.80
8945;DHT22;4507;40.232;29.132;2023-05-10T04:44:57;14.20;92.80
8945;DHT22;4507;40.232;29.132;2023-05-10T04:47:26;14.20;92.60
8945;DHT22;4507;40.232;29.132;2023-05-10T04:49:55;14.20;92.60
8945;DHT22;4507;40.232;29.132;2023-05-10T04:52:24;14.20;92.50
8945;DHT22;4507;40.232;29.132;2023-05-10T04:54:54;14.30;92.60
8945;DHT22;4507;40.232;29.132;2023-05-10T04:57:23;14.30;92.70
8945;DHT22;4507;40.232;29.132;2023-05-10T04:59:53;14.30;92.50
8945;DHT22;4507;40.232;29.132;2023-05-10T05:02:23;14.30;92.30
8945;DHT22;4507;40.232;29.132;2023-05-10T05:04:52;14.30;92.20
8945;DHT22;4507;40.232;29.132;2023-05-10T05:07:21;14.30;92.20
8945;DHT22;4507;40.232;29.132;2023-05-10T05:09:50;14.30;92.00
8945;DHT22;4507;40.232;29.132;2023-05-10T05:12:19;14.30;91.90
8945;DHT22;4507;40.232;29.132;2023-05-10T05:14:48;14.30;91.90
8945;DHT22;4507;40.232;29.132;2023-05-10T05:17:18;14.30;92.00
8945;DHT22;4507;40.232;29.132;2023-05-10T05:19:47;14.20;92.00
8945;DHT22;4507;40.232;29.132;2023-05-10T05:22:16;14.20;92.30
8945;DHT22;4507;40.232;29.132;2023-05-10T05:24:46;14.20;92.00
8945;DHT22;4507;40.232;29.132;2023-05-10T05:27:18;14.30;92.10
8945;DHT22;4507;40.232;29.132;2023-05-10T05:29:52;14.30;92.00
8945;DHT22;4507;40.232;29.132;2023-05-10T05:32:23;14.30;91.90
8945;DHT22;4507;40.232;29.132;2023-05-10T05:34:52;14.30;91.90
8945;DHT22;4507;40.232;29.132;2023-05-10T05:37:21;14.30;91.90
8945;DHT22;4507;40.232;29.132;2023-05-10T05:39:51;14.30;91.80
8945;DHT22;4507;40.232;29.132;2023-05-10T05:42:40;14.30;91.80
8945;DHT22;4507;40.232;29.132;2023-05-10T05:45:10;14.40;91.70
8945;DHT22;4507;40.232;29.132;2023-05-10T05:47:42;14.30;91.70
8945;DHT22;4507;40.232;29.132;2023-05-10T05:50:11;14.40;91.60
8945;DHT22;4507;40.232;29.132;2023-05-10T05:52:40;14.40;91.50
8945;DHT22;4507;40.232;29.132;2023-05-10T05:55:09;14.40;91.50
8945;DHT22;4507;40.232;29.132;2023-05-10T05:57:39;14.40;91.40
8945;DHT22;4507;40.232;29.132;2023-05-10T06:00:08;14.50;91.50
8945;DHT22;4507;40.232;29.132;2023-05-10T06:02:42;14.50;91.50
8945;DHT22;4507;40.232;29.132;2023-05-10T06:05:11;14.60;91.40
8945;DHT22;4507;40.232;29.132;2023-05-10T06:07:41;14.60;91.40
8945;DHT22;4507;40.232;29.132;2023-05-10T06:10:10;14.60;91.30
8945;DHT22;4507;40.232;29.132;2023-05-10T06:12:39;14.70;91.30
8945;DHT22;4507;40.232;29.132;2023-05-10T06:15:12;14.80;91.20
8945;DHT22;4507;40.232;29.132;2023-05-10T06:17:43;14.80;91.00
8945;DHT22;4507;40.232;29.132;2023-05-10T06:20:13;14.90;90.80
8945;DHT22;4507;40.232;29.132;2023-05-10T06:22:42;14.90;90.60
8945;DHT22;4507;40.232;29.132;2023-05-10T06:25:11;14.90;90.60
8945;DHT22;4507;40.232;29.132;2023-05-10T06:27:41;15.00;90.40
8945;DHT22;4507;40.232;29.132;2023-05-10T06:30:16;15.00;90.40
8945;DHT22;4507;40.232;29.132;2023-05-10T06:32:46;15.10;90.20
8945;DHT22;4507;40.232;29.132;2023-05-10T06:35:15;15.10;89.70
8945;DHT22;4507;40.232;29.132;2023-05-10T06:37:45;15.10;89.50
8945;DHT22;4507;40.232;29.132;2023-05-10T06:40:15;15.20;89.60
8945;DHT22;4507;40.232;29.132;2023-05-10T06:42:44;15.20;89.60
8945;DHT22;4507;40.232;29.132;2023-05-10T06:45:13;15.30;89.50
8945;DHT22;4507;40.232;29.132;2023-05-10T06:47:43;15.30;88.40
8945;DHT22;4507;40.232;29.132;2023-05-10T06:50:14;15.30;88.70
8945;DHT22;4507;40.232;29.132;2023-05-10T06:52:44;15.30;88.90
8945;DHT22;4507;40.232;29.132;2023-05-10T06:55:12;15.30;89.00
8945;DHT22;4507;40.232;29.132;2023-05-10T06:57:42;15.40;89.30
8945;DHT22;4507;40.232;29.132;2023-05-10T07:00:12;15.40;88.90
8945;DHT22;4507;40.232;29.132;2023-05-10T07:02:42;15.50;89.30
8945;DHT22;4507;40.232;29.132;2023-05-10T07:05:12;15.60;89.20
8945;DHT22;4507;40.232;29.132;2023-05-10T07:07:43;15.60;88.60
8945;DHT22;4507;40.232;29.132;2023-05-10T07:10:13;15.60;88.30
8945;DHT22;4507;40.232;29.132;2023-05-10T07:12:45;15.60;88.40
8945;DHT22;4507;40.232;29.132;2023-05-10T07:15:14;15.60;88.20
8945;DHT22;4507;40.232;29.132;2023-05-10T07:17:44;15.70;88.60
8945;DHT22;4507;40.232;29.132;2023-05-10T07:20:14;15.70;89.10
8945;DHT22;4507;40.232;29.132;2023-05-10T07:22:44;15.70;89.40
8945;DHT22;4507;40.232;29.132;2023-05-10T07:25:13;15.80;89.00
8945;DHT22;4507;40.232;29.132;2023-05-10T07:27:42;15.80;89.30
8945;DHT22;4507;40.232;29.132;2023-05-10T07:30:12;15.80;88.50
8945;DHT22;4507;40.232;29.132;2023-05-10T07:32:42;15.80;88.80
8945;DHT22;4507;40.232;29.132;2023-05-10T07:35:11;15.80;89.00
8945;DHT22;4507;40.232;29.132;2023-05-10T07:37:41;15.90;89.20
8945;DHT22;4507;40.232;29.132;2023-05-10T07:40:11;15.90;89.00
8945;DHT22;4507;40.232;29.132;2023-05-10T07:42:40;16.00;88.80
8945;DHT22;4507;40.232;29.132;2023-05-10T07:45:10;16.00;88.00
8945;DHT22;4507;40.232;29.132;2023-05-10T07:47:38;16.00;87.80
8945;DHT22;4507;40.232;29.132;2023-05-10T07:50:08;16.00;87.60
8945;DHT22;4507;40.232;29.132;2023-05-10T07:52:37;16.10;87.60
8945;DHT22;4507;40.232;29.132;2023-05-10T07:55:07;16.10;87.80
8945;DHT22;4507;40.232;29.132;2023-05-10T07:57:38;16.10;88.20
8945;DHT22;4507;40.232;29.132;2023-05-10T08:00:08;16.20;87.50
8945;DHT22;4507;40.232;29.132;2023-05-10T08:02:40;16.30;86.90
8945;DHT22;4507;40.232;29.132;2023-05-10T08:05:10;16.40;87.10
8945;DHT22;4507;40.232;29.132;2023-05-10T08:07:39;16.40;86.50
8945;DHT22;4507;40.232;29.132;2023-05-10T08:10:09;16.50;86.20
8945;DHT22;4507;40.232;29.132;2023-05-10T08:12:40;16.60;86.70
8945;DHT22;4507;40.232;29.132;2023-05-10T08:15:10;16.60;86.20
8945;DHT22;4507;40.232;29.132;2023-05-10T08:17:39;16.70;86.30
8945;DHT22;4507;40.232;29.132;2023-05-10T08:20:09;16.80;86.10
8945;DHT22;4507;40.232;29.132;2023-05-10T08:22:40;16.80;84.50
8945;DHT22;4507;40.232;29.132;2023-05-10T08:25:09;16.80;83.70
8945;DHT22;4507;40.232;29.132;2023-05-10T08:27:39;16.80;84.10
8945;DHT22;4507;40.232;29.132;2023-05-10T08:30:09;16.80;83.90
8945;DHT22;4507;40.232;29.132;2023-05-10T08:32:39;16.80;82.80
8945;DHT22;4507;40.232;29.132;2023-05-10T08:35:08;16.80;82.70
8945;DHT22;4507;40.232;29.132;2023-05-10T08:37:37;16.80;83.30
8945;DHT22;4507;40.232;29.132;2023-05-10T08:40:07;16.80;83.20
8945;DHT22;4507;40.232;29.132;2023-05-10T08:42:43;16.80;82.90
8945;DHT22;4507;40.232;29.132;2023-05-10T08:45:14;16.80;82.40
8945;DHT22;4507;40.232;29.132;2023-05-10T08:47:44;16.80;82.40
8945;DHT22;4507;40.232;29.132;2023-05-10T08:50:15;16.80;83.10
8945;DHT22;4507;40.232;29.132;2023-05-10T08:52:46;16.80;83.10
8945;DHT22;4507;40.232;29.132;2023-05-10T08:55:16;16.80;82.60
8945;DHT22;4507;40.232;29.132;2023-05-10T08:57:47;16.90;82.90
8945;DHT22;4507;40.232;29.132;2023-05-10T09:00:17;16.90;83.10
8945;DHT22;4507;40.232;29.132;2023-05-10T09:02:48;16.90;82.80
8945;DHT22;4507;40.232;29.132;2023-05-10T09:05:18;16.90;82.10
8945;DHT22;4507;40.232;29.132;2023-05-10T09:07:47;16.90;81.90
8945;DHT22;4507;40.232;29.132;2023-05-10T09:10:16;16.90;81.40
8945;DHT22;4507;40.232;29.132;2023-05-10T09:12:47;16.90;81.80
8945;DHT22;4507;40.232;29.132;2023-05-10T09:15:17;16.90;82.30
8945;DHT22;4507;40.232;29.132;2023-05-10T09:17:49;17.00;82.20
8945;DHT22;4507;40.232;29.132;2023-05-10T09:20:18;17.10;82.00
8945;DHT22;4507;40.232;29.132;2023-05-10T09:22:48;17.10;81.40
8945;DHT22;4507;40.232;29.132;2023-05-10T09:25:16;17.20;81.30
8945;DHT22;4507;40.232;29.132;2023-05-10T09:27:48;17.20;81.30
8945;DHT22;4507;40.232;29.132;2023-05-10T09:30:22;17.20;81.60
8945;DHT22;4507;40.232;29.132;2023-05-10T09:32:52;17.20;81.60
8945;DHT22;4507;40.232;29.132;2023-05-10T09:35:23;17.30;81.30
8945;DHT22;4507;40.232;29.132;2023-05-10T09:38:04;17.30;80.40
8945;DHT22;4507;40.232;29.132;2023-05-10T09:40:33;17.30;80.00
8945;DHT22;4507;40.232;29.132;2023-05-10T09:43:06;17.30;80.70
8945;DHT22;4507;40.232;29.132;2023-05-10T09:45:36;17.30;80.90
8945;DHT22;4507;40.232;29.132;2023-05-10T09:48:06;17.40;80.50
8945;DHT22;4507;40.232;29.132;2023-05-10T09:50:35;17.50;80.90
8945;DHT22;4507;40.232;29.132;2023-05-10T09:53:04;17.60;80.10
8945;DHT22;4507;40.232;29.132;2023-05-10T09:55:44;17.70;79.40
8945;DHT22;4507;40.232;29.132;2023-05-10T09:58:15;17.80;78.80
8945;DHT22;4507;40.232;29.132;2023-05-10T10:00:45;17.80;78.50
8945;DHT22;4507;40.232;29.132;2023-05-10T10:03:16;17.90;79.00
8945;DHT22;4507;40.232;29.132;2023-05-10T10:05:47;17.90;78.10
8945;DHT22;4507;40.232;29.132;2023-05-10T10:08:16;17.90;78.50
8945;DHT22;4507;40.232;29.132;2023-05-10T10:10:47;17.90;78.70
8945;DHT22;4507;40.232;29.132;2023-05-10T10:13:19;17.90;78.10
8945;DHT22;4507;40.232;29.132;2023-05-10T10:15:48;17.80;77.90
8945;DHT22;4507;40.232;29.132;2023-05-10T10:18:19;17.80;78.20
8945;DHT22;4507;40.232;29.132;2023-05-10T10:20:51;17.80;78.90
8945;DHT22;4507;40.232;29.132;2023-05-10T10:23:21;17.90;78.60
8945;DHT22;4507;40.232;29.132;2023-05-10T10:25:51;17.80;78.30
8945;DHT22;4507;40.232;29.132;2023-05-10T10:28:39;17.90;78.80
8945;DHT22;4507;40.232;29.132;2023-05-10T10:31:19;17.90;79.30
8945;DHT22;4507;40.232;29.132;2023-05-10T10:33:59;18.00;79.00
8945;DHT22;4507;40.232;29.132;2023-05-10T10:36:29;18.00;79.30
8945;DHT22;4507;40.232;29.132;2023-05-10T10:39:01;18.10;78.80
8945;DHT22;4507;40.232;29.132;2023-05-10T10:41:33;18.10;77.70
8945;DHT22;4507;40.232;29.132;2023-05-10T10:44:25;18.10;77.70
8945;DHT22;4507;40.232;29.132;2023-05-10T10:47:06;18.00;78.10
8945;DHT22;4507;40.232;29.132;2023-05-10T10:49:45;18.00;78.60
8945;DHT22;4507;40.232;29.132;2023-05-10T10:52:22;18.00;78.90
8945;DHT22;4507;40.232;29.132;2023-05-10T10:55:14;18.00;79.10
8945;DHT22;4507;40.232;29.132;2023-05-10T10:57:47;18.00;79.00
8945;DHT22;4507;40.232;29.132;2023-05-10T11:00:27;18.00;79.40
8945;DHT22;4507;40.232;29.132;2023-05-10T11:02:58;18.10;79.30
8945;DHT22;4507;40.232;29.132;2023-05-10T11:05:45;18.10;79.40
8945;DHT22;4507;40.232;29.132;2023-05-10T11:08:17;18.10;79.00
8945;DHT22;4507;40.232;29.132;2023-05-10T11:11:04;18.00;79.40
8945;DHT22;4507;40.232;29.132;2023-05-10T11:13:43;17.90;79.90
8945;DHT22;4507;40.232;29.132;2023-05-10T11:16:20;17.90;81.20
8945;DHT22;4507;40.232;29.132;2023-05-10T11:18:58;17.80;81.50
8945;DHT22;4507;40.232;29.132;2023-05-10T11:21:29;17.80;82.30
8945;DHT22;4507;40.232;29.132;2023-05-10T11:24:23;17.70;82.60
8945;DHT22;4507;40.232;29.132;2023-05-10T11:26:56;17.60;83.20
8945;DHT22;4507;40.232;29.132;2023-05-10T11:29:26;17.60;83.60
8945;DHT22;4507;40.232;29.132;2023-05-10T11:31:58;17.50;83.80
8945;DHT22;4507;40.232;29.132;2023-05-10T11:34:29;17.50;84.60
8945;DHT22;4507;40.232;29.132;2023-05-10T11:37:01;17.40;85.20
8945;DHT22;4507;40.232;29.132;2023-05-10T11:39:31;17.30;85.70
8945;DHT22;4507;40.232;29.132;2023-05-10T11:42:00;17.30;86.10
8945;DHT22;4507;40.232;29.132;2023-05-10T11:44:30;17.20;86.40
8945;DHT22;4507;40.232;29.132;2023-05-10T11:47:01;17.20;87.40
8945;DHT22;4507;40.232;29.132;2023-05-10T11:49:30;17.10;88.20
8945;DHT22;4507;40.232;29.132;2023-05-10T11:52:04;17.10;89.00
8945;DHT22;4507;40.232;29.132;2023-05-10T11:54:34;17.10;89.60
8945;DHT22;4507;40.232;29.132;2023-05-10T11:57:03;17.00;89.90
8945;DHT22;4507;40.232;29.132;2023-05-10T11:59:32;17.00;90.10
8945;DHT22;4507;40.232;29.132;2023-05-10T12:02:03;17.00;90.20
8945;DHT22;4507;40.232;29.132;2023-05-10T12:04:32;17.00;90.40
8945;DHT22;4507;40.232;29.132;2023-05-10T12:07:01;17.00;90.60
8945;DHT22;4507;40.232;29.132;2023-05-10T12:09:30;16.90;90.70
8945;DHT22;4507;40.232;29.132;2023-05-10T12:12:09;16.90;91.00
8945;DHT22;4507;40.232;29.132;2023-05-10T12:14:38;16.90;91.20
8945;DHT22;4507;40.232;29.132;2023-05-10T12:17:13;16.90;91.40
8945;DHT22;4507;40.232;29.132;2023-05-10T12:19:41;16.80;91.50
8945;DHT22;4507;40.232;29.132;2023-05-10T12:22:11;16.80;91.50
8945;DHT22;4507;40.232;29.132;2023-05-10T12:24:40;16.80;91.60
8945;DHT22;4507;40.232;29.132;2023-05-10T12:27:09;16.80;91.90
8945;DHT22;4507;40.232;29.132;2023-05-10T12:29:41;16.70;92.00
8945;DHT22;4507;40.232;29.132;2023-05-10T12:32:13;16.70;92.30
8945;DHT22;4507;40.232;29.132;2023-05-10T12:34:42;16.70;92.50
8945;DHT22;4507;40.232;29.132;2023-05-10T12:37:15;16.70;92.60
8945;DHT22;4507;40.232;29.132;2023-05-10T12:39:44;16.70;92.80
8945;DHT22;4507;40.232;29.132;2023-05-10T12:42:14;16.60;92.90
8945;DHT22;4507;40.232;29.132;2023-05-10T12:44:43;16.60;93.30
8945;DHT22;4507;40.232;29.132;2023-05-10T12:47:13;16.60;93.40
8945;DHT22;4507;40.232;29.132;2023-05-10T12:49:42;16.60;93.50
8945;DHT22;4507;40.232;29.132;2023-05-10T12:52:11;16.60;93.70
8945;DHT22;4507;40.232;29.132;2023-05-10T12:54:40;16.60;93.90
8945;DHT22;4507;40.232;29.132;2023-05-10T12:57:11;16.60;94.00
8945;DHT22;4507;40.232;29.132;2023-05-10T12:59:40;16.60;94.40
8945;DHT22;4507;40.232;29.132;2023-05-10T13:02:09;16.60;94.30
8945;DHT22;4507;40.232;29.132;2023-05-10T13:04:39;16.60;94.50
8945;DHT22;4507;40.232;29.132;2023-05-10T13:07:09;16.60;94.60
8945;DHT22;4507;40.232;29.132;2023-05-10T13:09:38;16.60;94.50
8945;DHT22;4507;40.232;29.132;2023-05-10T13:12:07;16.60;94.10
8945;DHT22;4507;40.232;29.132;2023-05-10T13:14:36;16.50;93.80
8945;DHT22;4507;40.232;29.132;2023-05-10T13:17:07;16.40;93.70
8945;DHT22;4507;40.232;29.132;2023-05-10T13:19:36;16.40;93.80
8945;DHT22;4507;40.232;29.132;2023-05-10T13:22:07;16.30;93.90
8945;DHT22;4507;40.232;29.132;2023-05-10T13:24:36;16.30;94.10
8945;DHT22;4507;40.232;29.132;2023-05-10T13:27:05;16.20;94.20
8945;DHT22;4507;40.232;29.132;2023-05-10T13:29:34;16.10;94.30
8945;DHT22;4507;40.232;29.132;2023-05-10T13:32:03;16.10;94.60
8945;DHT22;4507;40.232;29.132;2023-05-10T13:34:32;16.10;94.90
8945;DHT22;4507;40.232;29.132;2023-05-10T13:37:03;16.10;94.90
8945;DHT22;4507;40.232;29.132;2023-05-10T13:39:33;16.10;95.00
8945;DHT22;4507;40.232;29.132;2023-05-10T13:42:05;16.00;95.20
8945;DHT22;4507;40.232;29.132;2023-05-10T13:44:34;16.00;95.40
8945;DHT22;4507;40.232;29.132;2023-05-10T13:47:03;16.00;95.40
8945;DHT22;4507;40.232;29.132;2023-05-10T13:49:32;16.00;95.50
8945;DHT22;4507;40.232;29.132;2023-05-10T13:52:01;16.00;95.60
8945;DHT22;4507;40.232;29.132;2023-05-10T13:54:35;16.00;95.80
8945;DHT22;4507;40.232;29.132;2023-05-10T13:57:05;16.00;96.40
8945;DHT22;4507;40.232;29.132;2023-05-10T13:59:35;16.10;96.30
8945;DHT22;4507;40.232;29.132;2023-05-10T14:02:04;16.10;96.70
8945;DHT22;4507;40.232;29.132;2023-05-10T14:04:33;16.10;96.90
8945;DHT22;4507;40.232;29.132;2023-05-10T14:07:02;16.20;97.00
8945;DHT22;4507;40.232;29.132;2023-05-10T14:09:31;16.30;97.00
8945;DHT22;4507;40.232;29.132;2023-05-10T14:12:02;16.30;96.80
8945;DHT22;4507;40.232;29.132;2023-05-10T14:14:31;16.30;96.40
8945;DHT22;4507;40.232;29.132;2023-05-10T14:17:00;16.40;96.20
8945;DHT22;4507;40.232;29.132;2023-05-10T14:19:29;16.30;95.60
8945;DHT22;4507;40.232;29.132;2023-05-10T14:21:59;16.30;95.40
8945;DHT22;4507;40.232;29.132;2023-05-10T14:24:28;16.30;95.60
8945;DHT22;4507;40.232;29.132;2023-05-10T14:26:57;16.30;95.40
8945;DHT22;4507;40.232;29.132;2023-05-10T14:29:27;16.20;95.10
8945;DHT22;4507;40.232;29.132;2023-05-10T14:31:56;16.20;95.00
8945;DHT22;4507;40.232;29.132;2023-05-10T14:34:25;16.10;94.90
8945;DHT22;4507;40.232;29.132;2023-05-10T14:36:54;16.10;94.90
8945;DHT22;4507;40.232;29.132;2023-05-10T14:39:23;16.10;94.90
8945;DHT22;4507;40.232;29.132;2023-05-10T14:41:53;16.10;95.10
8945;DHT22;4507;40.232;29.132;2023-05-10T14:44:21;16.00;94.90
8945;DHT22;4507;40.232;29.132;2023-05-10T14:46:52;16.00;94.80
8945;DHT22;4507;40.232;29.132;2023-05-10T14:49:22;15.90;94.60
8945;DHT22;4507;40.232;29.132;2023-05-10T14:51:53;15.90;94.60
8945;DHT22;4507;40.232;29.132;2023-05-10T14:54:23;15.90;94.70
8945;DHT22;4507;40.232;29.132;2023-05-10T14:56:52;15.80;94.50
8945;DHT22;4507;40.232;29.132;2023-05-10T14:59:21;15.80;94.40
8945;DHT22;4507;40.232;29.132;2023-05-10T15:01:52;15.70;94.30
8945;DHT22;4507;40.232;29.132;2023-05-10T15:04:22;15.70;94.40
8945;DHT22;4507;40.232;29.132;2023-05-10T15:06:55;15.70;94.50
8945;DHT22;4507;40.232;29.132;2023-05-10T15:09:26;15.70;94.50
8945;DHT22;4507;40.232;29.132;2023-05-10T15:11:55;15.60;94.50
8945;DHT22;4507;40.232;29.132;2023-05-10T15:14:25;15.60;94.60
8945;DHT22;4507;40.232;29.132;2023-05-10T15:16:56;15.60;94.80
8945;DHT22;4507;40.232;29.132;2023-05-10T15:19:26;15.50;94.80
8945;DHT22;4507;40.232;29.132;2023-05-10T15:21:56;15.50;95.00
8945;DHT22;4507;40.232;29.132;2023-05-10T15:24:25;15.50;95.20
8945;DHT22;4507;40.232;29.132;2023-05-10T15:26:54;15.50;95.20
8945;DHT22;4507;40.232;29.132;2023-05-10T15:29:24;15.50;95.20
8945;DHT22;4507;40.232;29.132;2023-05-10T15:31:53;15.40;95.20
8945;DHT22;4507;40.232;29.132;2023-05-10T15:34:23;15.40;95.40
8945;DHT22;4507;40.232;29.132;2023-05-10T15:37:03;15.40;95.40
8945;DHT22;4507;40.232;29.132;2023-05-10T15:39:36;15.40;95.50
8945;DHT22;4507;40.232;29.132;2023-05-10T15:42:06;15.40;95.60
8945;DHT22;4507;40.232;29.132;2023-05-10T15:44:35;15.40;95.60
8945;DHT22;4507;40.232;29.132;2023-05-10T15:47:05;15.30;95.50
8945;DHT22;4507;40.232;29.132;2023-05-10T15:49:36;15.30;95.60
8945;DHT22;4507;40.232;29.132;2023-05-10T15:52:05;15.40;95.70
8945;DHT22;4507;40.232;29.132;2023-05-10T15:54:34;15.30;95.70
8945;DHT22;4507;40.232;29.132;2023-05-10T15:57:03;15.30;95.90
8945;DHT22;4507;40.232;29.132;2023-05-10T15:59:32;15.30;96.00
8945;DHT22;4507;40.232;29.132;2023-05-10T16:02:02;15.30;96.20
8945;DHT22;4507;40.232;29.132;2023-05-10T16:04:31;15.30;96.30
8945;DHT22;4507;40.232;29.132;2023-05-10T16:07:02;15.30;96.20
8945;DHT22;4507;40.232;29.132;2023-05-10T16:09:31;15.30;96.00